sensor_id;sensor_type;location;lat;lon;timestamp;P1;durP1;ratioP1;P2;durP2;ratioP2
72053;SDS011;59918;51.280;7.950;2022-09-01T00:02:20;2.35;;;2.25;;
72053;SDS011;59918;51.280;7.950;2022-09-01T00:04:46;2.80;;;2.60;;
72053;SDS011;59918;51.280;7.950;2022-09-01T00:07:11;3.53;;;2.50;;
72053;SDS011;59918;51.280;7.950;2022-09-01T00:09:37;2.55;;;2.35;;
72053;SDS011;59918;51.280;7.950;2022-09-01T00:12:04;3.28;;;2.50;;
72053;SDS011;59918;51.280;7.950;2022-09-01T00:14:33;2.35;;;2.15;;
72053;SDS011;59918;51.280;7.950;2022-09-01T00:17:03;4.07;;;2.45;;
72053;SDS011;59918;51.280;7.950;2022-09-01T00:19:31;3.58;;;2.80;;
72053;SDS011;59918;51.280;7.950;2022-09-01T00:21:56;5.85;;;2.30;;
72053;SDS011;59918;51.280;7.950;2022-09-01T00:24:22;2.65;;;2.25;;
72053;SDS011;59918;51.280;7.950;2022-09-01T00:26:50;2.50;;;2.30;;
72053;SDS011;59918;51.280;7.950;2022-09-01T00:29:16;5.80;;;3.45;;
72053;SDS011;59918;51.280;7.950;2022-09-01T00:31:41;3.10;;;2.28;;
72053;SDS011;59918;51.280;7.950;2022-09-01T00:34:07;4.32;;;2.33;;
72053;SDS011;59918;51.280;7.950;2022-09-01T00:36:32;2.60;;;2.40;;
72053;SDS011;59918;51.280;7.950;2022-09-01T00:38:58;3.72;;;2.10;;
72053;SDS011;59918;51.280;7.950;2022-09-01T00:41:24;2.40;;;2.30;;
72053;SDS011;59918;51.280;7.950;2022-09-01T00:43:52;2.53;;;2.42;;
72053;SDS011;59918;51.280;7.950;2022-09-01T00:46:28;3.17;;;2.30;;
72053;SDS011;59918;51.280;7.950;2022-09-01T00:48:58;2.65;;;2.45;;
72053;SDS011;59918;51.280;7.950;2022-09-01T00:51:24;3.35;;;2.47;;
72053;SDS011;59918;51.280;7.950;2022-09-01T00:53:51;5.15;;;2.85;;
72053;SDS011;59918;51.280;7.950;2022-09-01T00:56:17;2.60;;;2.40;;
72053;SDS011;59918;51.280;7.950;2022-09-01T00:58:42;2.80;;;2.25;;
72053;SDS011;59918;51.280;7.950;2022-09-01T01:01:11;2.70;;;2.50;;
72053;SDS011;59918;51.280;7.950;2022-09-01T01:03:39;2.10;;;2.00;;
72053;SDS011;59918;51.280;7.950;2022-09-01T01:06:05;3.60;;;2.38;;
72053;SDS011;59918;51.280;7.950;2022-09-01T01:08:32;2.67;;;2.47;;
72053;SDS011;59918;51.280;7.950;2022-09-01T01:11:05;4.90;;;3.08;;
72053;SDS011;59918;51.280;7.950;2022-09-01T01:16:32;2.75;;;2.00;;
72053;SDS011;59918;51.280;7.950;2022-09-01T01:18:57;2.40;;;2.30;;
72053;SDS011;59918;51.280;7.950;2022-09-01T01:21:24;3.05;;;2.55;;
72053;SDS011;59918;51.280;7.950;2022-09-01T01:23:56;4.88;;;2.80;;
72053;SDS011;59918;51.280;7.950;2022-09-01T01:26:27;4.75;;;2.30;;
72053;SDS011;59918;51.280;7.950;2022-09-01T01:28:55;3.10;;;2.40;;
72053;SDS011;59918;51.280;7.950;2022-09-01T01:31:20;2.60;;;2.42;;
72053;SDS011;59918;51.280;7.950;2022-09-01T01:33:47;2.60;;;2.40;;
72053;SDS011;59918;51.280;7.950;2022-09-01T01:36:16;3.30;;;2.35;;
72053;SDS011;59918;51.280;7.950;2022-09-01T01:38:52;3.95;;;2.20;;
72053;SDS011;59918;51.280;7.950;2022-09-01T01:41:17;2.42;;;2.22;;
72053;SDS011;59918;51.280;7.950;2022-09-01T01:43:42;2.58;;;2.38;;
72053;SDS011;59918;51.280;7.950;2022-09-01T01:46:08;2.55;;;2.35;;
72053;SDS011;59918;51.280;7.950;2022-09-01T01:48:36;5.90;;;2.10;;
72053;SDS011;59918;51.280;7.950;2022-09-01T01:51:03;2.53;;;2.33;;
72053;SDS011;59918;51.280;7.950;2022-09-01T01:53:29;2.70;;;2.50;;
72053;SDS011;59918;51.280;7.950;2022-09-01T01:55:55;2.70;;;2.50;;
72053;SDS011;59918;51.280;7.950;2022-09-01T01:58:21;2.72;;;2.53;;
72053;SDS011;59918;51.280;7.950;2022-09-01T02:00:49;2.30;;;2.20;;
72053;SDS011;59918;51.280;7.950;2022-09-01T02:03:17;3.65;;;2.75;;
72053;SDS011;59918;51.280;7.950;2022-09-01T02:05:46;3.28;;;2.50;;
72053;SDS011;59918;51.280;7.950;2022-09-01T02:08:13;5.47;;;2.50;;
72053;SDS011;59918;51.280;7.950;2022-09-01T02:10:39;3.30;;;2.53;;
72053;SDS011;59918;51.280;7.950;2022-09-01T02:13:07;2.92;;;2.60;;
72053;SDS011;59918;51.280;7.950;2022-09-01T02:15:35;2.50;;;2.30;;
72053;SDS011;59918;51.280;7.950;2022-09-01T02:18:02;2.75;;;2.55;;
72053;SDS011;59918;51.280;7.950;2022-09-01T02:20:28;3.22;;;2.60;;
72053;SDS011;59918;51.280;7.950;2022-09-01T02:22:54;2.67;;;2.50;;
72053;SDS011;59918;51.280;7.950;2022-09-01T02:25:20;3.63;;;2.60;;
72053;SDS011;59918;51.280;7.950;2022-09-01T02:27:46;3.47;;;3.17;;
72053;SDS011;59918;51.280;7.950;2022-09-01T02:30:11;3.20;;;2.85;;
72053;SDS011;59918;51.280;7.950;2022-09-01T02:32:36;3.97;;;2.85;;
72053;SDS011;59918;51.280;7.950;2022-09-01T02:35:03;2.83;;;2.63;;
72053;SDS011;59918;51.280;7.950;2022-09-01T02:37:30;3.83;;;3.03;;
72053;SDS011;59918;51.280;7.950;2022-09-01T02:39:55;4.55;;;3.10;;
72053;SDS011;59918;51.280;7.950;2022-09-01T02:42:20;3.33;;;3.03;;
72053;SDS011;59918;51.280;7.950;2022-09-01T02:44:46;3.22;;;3.05;;
72053;SDS011;59918;51.280;7.950;2022-09-01T02:47:11;4.65;;;3.10;;
72053;SDS011;59918;51.280;7.950;2022-09-01T02:49:36;2.88;;;2.67;;
72053;SDS011;59918;51.280;7.950;2022-09-01T02:52:01;3.70;;;2.80;;
72053;SDS011;59918;51.280;7.950;2022-09-01T02:54:28;6.50;;;2.90;;
72053;SDS011;59918;51.280;7.950;2022-09-01T02:56:54;3.60;;;3.28;;
72053;SDS011;59918;51.280;7.950;2022-09-01T02:59:26;4.60;;;3.70;;
72053;SDS011;59918;51.280;7.950;2022-09-01T03:01:53;3.17;;;2.92;;
72053;SDS011;59918;51.280;7.950;2022-09-01T03:04:20;3.72;;;3.47;;
72053;SDS011;59918;51.280;7.950;2022-09-01T03:06:47;4.32;;;3.90;;
72053;SDS011;59918;51.280;7.950;2022-09-01T03:09:13;3.35;;;3.15;;
72053;SDS011;59918;51.280;7.950;2022-09-01T03:11:42;6.20;;;3.55;;
72053;SDS011;59918;51.280;7.950;2022-09-01T03:14:10;4.63;;;3.65;;
72053;SDS011;59918;51.280;7.950;2022-09-01T03:16:36;3.25;;;3.05;;
72053;SDS011;59918;51.280;7.950;2022-09-01T03:19:04;4.60;;;3.20;;
72053;SDS011;59918;51.280;7.950;2022-09-01T03:21:31;3.72;;;2.83;;
72053;SDS011;59918;51.280;7.950;2022-09-01T03:23:57;3.47;;;3.17;;
72053;SDS011;59918;51.280;7.950;2022-09-01T03:26:22;5.45;;;3.20;;
72053;SDS011;59918;51.280;7.950;2022-09-01T03:28:49;3.58;;;3.38;;
72053;SDS011;59918;51.280;7.950;2022-09-01T03:31:15;4.00;;;3.63;;
72053;SDS011;59918;51.280;7.950;2022-09-01T03:33:41;4.03;;;3.72;;
72053;SDS011;59918;51.280;7.950;2022-09-01T03:36:06;4.22;;;3.83;;
72053;SDS011;59918;51.280;7.950;2022-09-01T03:38:32;3.28;;;2.85;;
72053;SDS011;59918;51.280;7.950;2022-09-01T03:40:59;4.00;;;3.20;;
72053;SDS011;59918;51.280;7.950;2022-09-01T03:43:27;4.43;;;3.38;;
72053;SDS011;59918;51.280;7.950;2022-09-01T03:45:55;3.80;;;3.60;;
72053;SDS011;59918;51.280;7.950;2022-09-01T03:48:22;3.90;;;3.60;;
72053;SDS011;59918;51.280;7.950;2022-09-01T03:50:47;5.00;;;3.78;;
72053;SDS011;59918;51.280;7.950;2022-09-01T03:53:16;6.18;;;4.10;;
72053;SDS011;59918;51.280;7.950;2022-09-01T03:55:44;4.45;;;3.88;;
72053;SDS011;59918;51.280;7.950;2022-09-01T03:58:10;7.82;;;4.60;;
72053;SDS011;59918;51.280;7.950;2022-09-01T04:00:43;4.07;;;3.78;;
72053;SDS011;59918;51.280;7.950;2022-09-01T04:03:12;4.28;;;3.97;;
72053;SDS011;59918;51.280;7.950;2022-09-01T04:05:41;3.80;;;3.50;;
72053;SDS011;59918;51.280;7.950;2022-09-01T04:08:08;4.35;;;3.90;;
72053;SDS011;59918;51.280;7.950;2022-09-01T04:10:35;4.70;;;3.97;;
72053;SDS011;59918;51.280;7.950;2022-09-01T04:13:07;4.50;;;4.13;;
72053;SDS011;59918;51.280;7.950;2022-09-01T04:15:35;4.15;;;3.85;;
72053;SDS011;59918;51.280;7.950;2022-09-01T04:18:02;5.93;;;3.40;;
72053;SDS011;59918;51.280;7.950;2022-09-01T04:20:28;3.83;;;3.53;;
72053;SDS011;59918;51.280;7.950;2022-09-01T04:22:53;3.75;;;3.40;;
72053;SDS011;59918;51.280;7.950;2022-09-01T04:25:19;3.90;;;3.60;;
72053;SDS011;59918;51.280;7.950;2022-09-01T04:27:45;3.38;;;3.17;;
72053;SDS011;59918;51.280;7.950;2022-09-01T04:30:10;4.63;;;3.60;;
72053;SDS011;59918;51.280;7.950;2022-09-01T04:32:36;6.65;;;3.65;;
72053;SDS011;59918;51.280;7.950;2022-09-01T04:35:02;4.63;;;4.07;;
72053;SDS011;59918;51.280;7.950;2022-09-01T04:37:30;5.30;;;4.00;;
72053;SDS011;59918;51.280;7.950;2022-09-01T04:39:56;4.18;;;3.88;;
72053;SDS011;59918;51.280;7.950;2022-09-01T04:42:22;4.63;;;3.90;;
72053;SDS011;59918;51.280;7.950;2022-09-01T04:44:52;8.07;;;3.85;;
72053;SDS011;59918;51.280;7.950;2022-09-01T04:47:18;4.63;;;4.28;;
72053;SDS011;59918;51.280;7.950;2022-09-01T04:49:45;4.18;;;3.70;;
72053;SDS011;59918;51.280;7.950;2022-09-01T04:52:10;5.18;;;3.70;;
72053;SDS011;59918;51.280;7.950;2022-09-01T04:54:36;6.32;;;3.75;;
72053;SDS011;59918;51.280;7.950;2022-09-01T04:57:02;4.47;;;4.07;;
72053;SDS011;59918;51.280;7.950;2022-09-01T04:59:28;4.60;;;4.10;;
72053;SDS011;59918;51.280;7.950;2022-09-01T05:01:53;4.30;;;4.00;;
72053;SDS011;59918;51.280;7.950;2022-09-01T05:04:20;4.95;;;3.95;;
72053;SDS011;59918;51.280;7.950;2022-09-01T05:06:50;4.07;;;3.78;;
72053;SDS011;59918;51.280;7.950;2022-09-01T05:09:17;6.28;;;3.60;;
72053;SDS011;59918;51.280;7.950;2022-09-01T05:11:44;4.95;;;3.33;;
72053;SDS011;59918;51.280;7.950;2022-09-01T05:14:12;4.03;;;3.72;;
72053;SDS011;59918;51.280;7.950;2022-09-01T05:16:37;7.78;;;3.92;;
72053;SDS011;59918;51.280;7.950;2022-09-01T05:19:03;3.55;;;3.25;;
72053;SDS011;59918;51.280;7.950;2022-09-01T05:21:28;3.60;;;3.40;;
72053;SDS011;59918;51.280;7.950;2022-09-01T05:23:54;4.80;;;3.72;;
72053;SDS011;59918;51.280;7.950;2022-09-01T05:26:22;3.50;;;3.30;;
72053;SDS011;59918;51.280;7.950;2022-09-01T05:28:52;4.05;;;3.58;;
72053;SDS011;59918;51.280;7.950;2022-09-01T05:31:20;6.18;;;3.22;;
72053;SDS011;59918;51.280;7.950;2022-09-01T05:33:47;7.00;;;3.55;;
72053;SDS011;59918;51.280;7.950;2022-09-01T05:36:14;5.60;;;3.25;;
72053;SDS011;59918;51.280;7.950;2022-09-01T05:38:41;7.97;;;3.65;;
72053;SDS011;59918;51.280;7.950;2022-09-01T05:41:07;4.13;;;3.42;;
72053;SDS011;59918;51.280;7.950;2022-09-01T05:43:34;4.25;;;3.85;;
72053;SDS011;59918;51.280;7.950;2022-09-01T05:46:05;4.43;;;3.05;;
72053;SDS011;59918;51.280;7.950;2022-09-01T05:48:31;4.15;;;3.63;;
72053;SDS011;59918;51.280;7.950;2022-09-01T05:50:57;5.93;;;3.83;;
72053;SDS011;59918;51.280;7.950;2022-09-01T05:53:22;9.75;;;3.58;;
72053;SDS011;59918;51.280;7.950;2022-09-01T05:55:47;3.70;;;3.15;;
72053;SDS011;59918;51.280;7.950;2022-09-01T05:58:13;5.90;;;3.15;;
72053;SDS011;59918;51.280;7.950;2022-09-01T06:00:40;10.25;;;3.60;;
72053;SDS011;59918;51.280;7.950;2022-09-01T06:03:09;4.05;;;3.25;;
72053;SDS011;59918;51.280;7.950;2022-09-01T06:05:35;3.55;;;3.25;;
72053;SDS011;59918;51.280;7.950;2022-09-01T06:08:01;3.22;;;2.92;;
72053;SDS011;59918;51.280;7.950;2022-09-01T06:10:28;4.68;;;3.10;;
72053;SDS011;59918;51.280;7.950;2022-09-01T06:12:53;2.88;;;2.47;;
72053;SDS011;59918;51.280;7.950;2022-09-01T06:15:18;4.75;;;3.22;;
72053;SDS011;59918;51.280;7.950;2022-09-01T06:17:44;3.60;;;3.10;;
72053;SDS011;59918;51.280;7.950;2022-09-01T06:20:09;3.47;;;3.28;;
72053;SDS011;59918;51.280;7.950;2022-09-01T06:22:34;4.18;;;3.53;;
72053;SDS011;59918;51.280;7.950;2022-09-01T06:25:00;8.05;;;3.20;;
72053;SDS011;59918;51.280;7.950;2022-09-01T06:27:25;5.10;;;2.95;;
72053;SDS011;59918;51.280;7.950;2022-09-01T06:29:50;8.80;;;3.13;;
72053;SDS011;59918;51.280;7.950;2022-09-01T06:32:16;8.50;;;3.25;;
72053;SDS011;59918;51.280;7.950;2022-09-01T06:34:41;3.55;;;2.90;;
72053;SDS011;59918;51.280;7.950;2022-09-01T06:37:07;6.70;;;3.65;;
72053;SDS011;59918;51.280;7.950;2022-09-01T06:39:35;4.18;;;3.15;;
72053;SDS011;59918;51.280;7.950;2022-09-01T06:42:00;5.70;;;3.30;;
72053;SDS011;59918;51.280;7.950;2022-09-01T06:44:26;6.05;;;3.00;;
72053;SDS011;59918;51.280;7.950;2022-09-01T06:46:51;4.93;;;2.40;;
72053;SDS011;59918;51.280;7.950;2022-09-01T06:49:17;9.52;;;2.90;;
72053;SDS011;59918;51.280;7.950;2022-09-01T06:51:42;2.70;;;2.50;;
72053;SDS011;59918;51.280;7.950;2022-09-01T06:54:08;2.83;;;2.63;;
72053;SDS011;59918;51.280;7.950;2022-09-01T06:56:33;1.90;;;1.80;;
72053;SDS011;59918;51.280;7.950;2022-09-01T06:58:59;5.10;;;2.20;;
72053;SDS011;59918;51.280;7.950;2022-09-01T07:01:25;3.03;;;2.13;;
72053;SDS011;59918;51.280;7.950;2022-09-01T07:03:51;3.28;;;2.63;;
72053;SDS011;59918;51.280;7.950;2022-09-01T07:06:18;2.58;;;2.33;;
72053;SDS011;59918;51.280;7.950;2022-09-01T07:08:48;3.28;;;2.50;;
72053;SDS011;59918;51.280;7.950;2022-09-01T07:11:17;3.80;;;2.10;;
72053;SDS011;59918;51.280;7.950;2022-09-01T07:13:44;1.95;;;1.80;;
72053;SDS011;59918;51.280;7.950;2022-09-01T07:16:09;5.43;;;2.22;;
72053;SDS011;59918;51.280;7.950;2022-09-01T07:18:40;2.50;;;2.30;;
72053;SDS011;59918;51.280;7.950;2022-09-01T07:21:06;6.18;;;2.42;;
72053;SDS011;59918;51.280;7.950;2022-09-01T07:23:31;4.25;;;2.03;;
72053;SDS011;59918;51.280;7.950;2022-09-01T07:25:56;3.70;;;2.28;;
72053;SDS011;59918;51.280;7.950;2022-09-01T07:28:22;6.43;;;2.80;;
72053;SDS011;59918;51.280;7.950;2022-09-01T07:30:48;5.97;;;2.25;;
72053;SDS011;59918;51.280;7.950;2022-09-01T07:33:15;13.40;;;2.67;;
72053;SDS011;59918;51.280;7.950;2022-09-01T07:35:44;5.05;;;2.00;;
72053;SDS011;59918;51.280;7.950;2022-09-01T07:38:09;6.70;;;2.33;;
72053;SDS011;59918;51.280;7.950;2022-09-01T07:40:38;5.03;;;1.90;;
72053;SDS011;59918;51.280;7.950;2022-09-01T07:43:09;4.85;;;2.58;;
72053;SDS011;59918;51.280;7.950;2022-09-01T07:45:43;3.63;;;1.90;;
72053;SDS011;59918;51.280;7.950;2022-09-01T07:48:09;4.55;;;2.15;;
72053;SDS011;59918;51.280;7.950;2022-09-01T07:50:35;2.95;;;1.50;;
72053;SDS011;59918;51.280;7.950;2022-09-01T07:53:04;5.60;;;1.48;;
72053;SDS011;59918;51.280;7.950;2022-09-01T07:55:30;2.90;;;1.65;;
72053;SDS011;59918;51.280;7.950;2022-09-01T07:57:55;2.05;;;1.08;;
72053;SDS011;59918;51.280;7.950;2022-09-01T08:00:20;9.77;;;1.45;;
72053;SDS011;59918;51.280;7.950;2022-09-01T08:02:46;2.85;;;1.27;;
72053;SDS011;59918;51.280;7.950;2022-09-01T08:05:13;4.63;;;1.02;;
72053;SDS011;59918;51.280;7.950;2022-09-01T08:07:40;5.57;;;1.10;;
72053;SDS011;59918;51.280;7.950;2022-09-01T08:10:05;3.17;;;1.30;;
72053;SDS011;59918;51.280;7.950;2022-09-01T08:12:32;2.83;;;1.27;;
72053;SDS011;59918;51.280;7.950;2022-09-01T08:15:00;1.08;;;1.05;;
72053;SDS011;59918;51.280;7.950;2022-09-01T08:17:26;2.53;;;1.15;;
72053;SDS011;59918;51.280;7.950;2022-09-01T08:19:51;2.28;;;1.45;;
72053;SDS011;59918;51.280;7.950;2022-09-01T08:22:16;2.28;;;1.10;;
72053;SDS011;59918;51.280;7.950;2022-09-01T08:24:41;1.25;;;1.02;;
72053;SDS011;59918;51.280;7.950;2022-09-01T08:27:07;5.65;;;1.75;;
72053;SDS011;59918;51.280;7.950;2022-09-01T08:29:33;1.20;;;1.10;;
72053;SDS011;59918;51.280;7.950;2022-09-01T08:32:00;1.25;;;1.15;;
72053;SDS011;59918;51.280;7.950;2022-09-01T08:34:28;2.50;;;1.35;;
72053;SDS011;59918;51.280;7.950;2022-09-01T08:36:56;1.95;;;1.20;;
72053;SDS011;59918;51.280;7.950;2022-09-01T08:39:21;1.42;;;1.00;;
72053;SDS011;59918;51.280;7.950;2022-09-01T08:45:12;1.75;;;1.00;;
72053;SDS011;59918;51.280;7.950;2022-09-01T08:47:45;1.77;;;1.00;;
72053;SDS011;59918;51.280;7.950;2022-09-01T08:50:13;1.00;;;1.00;;
72053;SDS011;59918;51.280;7.950;2022-09-01T08:52:43;1.00;;;1.00;;
72053;SDS011;59918;51.280;7.950;2022-09-01T08:57:59;1.80;;;1.23;;
72053;SDS011;59918;51.280;7.950;2022-09-01T09:00:26;1.27;;;1.13;;
72053;SDS011;59918;51.280;7.950;2022-09-01T09:03:03;0.82;;;0.82;;
72053;SDS011;59918;51.280;7.950;2022-09-01T09:06:31;3.42;;;1.55;;
72053;SDS011;59918;51.280;7.950;2022-09-01T09:11:27;1.10;;;1.00;;
72053;SDS011;59918;51.280;7.950;2022-09-01T09:16:53;1.75;;;1.10;;
72053;SDS011;59918;51.280;7.950;2022-09-01T09:21:55;1.63;;;1.10;;
72053;SDS011;59918;51.280;7.950;2022-09-01T09:26:51;7.28;;;1.30;;
72053;SDS011;59918;51.280;7.950;2022-09-01T09:29:18;2.60;;;1.38;;
72053;SDS011;59918;51.280;7.950;2022-09-01T09:31:44;3.33;;;1.15;;
72053;SDS011;59918;51.280;7.950;2022-09-01T09:34:42;1.83;;;1.02;;
72053;SDS011;59918;51.280;7.950;2022-09-01T09:42:41;1.83;;;1.20;;
72053;SDS011;59918;51.280;7.950;2022-09-01T09:47:56;1.60;;;1.27;;
72053;SDS011;59918;51.280;7.950;2022-09-01T09:55:48;1.45;;;1.20;;
72053;SDS011;59918;51.280;7.950;2022-09-01T09:58:14;1.20;;;1.00;;
72053;SDS011;59918;51.280;7.950;2022-09-01T10:00:39;2.95;;;0.82;;
72053;SDS011;59918;51.280;7.950;2022-09-01T10:03:36;1.20;;;1.00;;
72053;SDS011;59918;51.280;7.950;2022-09-01T10:06:28;2.55;;;1.02;;
72053;SDS011;59918;51.280;7.950;2022-09-01T10:11:39;2.70;;;1.08;;
72053;SDS011;59918;51.280;7.950;2022-09-01T10:14:14;1.25;;;0.90;;
72053;SDS011;59918;51.280;7.950;2022-09-01T10:16:43;2.38;;;0.98;;
72053;SDS011;59918;51.280;7.950;2022-09-01T10:19:14;1.52;;;1.10;;
72053;SDS011;59918;51.280;7.950;2022-09-01T10:21:41;1.25;;;0.90;;
72053;SDS011;59918;51.280;7.950;2022-09-01T10:24:25;1.85;;;1.15;;
72053;SDS011;59918;51.280;7.950;2022-09-01T10:26:59;1.88;;;1.17;;
72053;SDS011;59918;51.280;7.950;2022-09-01T10:29:30;2.05;;;0.82;;
72053;SDS011;59918;51.280;7.950;2022-09-01T10:32:03;2.80;;;0.90;;
72053;SDS011;59918;51.280;7.950;2022-09-01T10:34:34;1.15;;;0.93;;
72053;SDS011;59918;51.280;7.950;2022-09-01T10:37:01;1.05;;;0.95;;
72053;SDS011;59918;51.280;7.950;2022-09-01T10:39:27;1.15;;;0.70;;
72053;SDS011;59918;51.280;7.950;2022-09-01T10:41:53;1.73;;;1.00;;
72053;SDS011;59918;51.280;7.950;2022-09-01T10:44:30;1.88;;;1.08;;
72053;SDS011;59918;51.280;7.950;2022-09-01T10:46:59;0.93;;;0.80;;
72053;SDS011;59918;51.280;7.950;2022-09-01T10:51:59;1.13;;;1.00;;
72053;SDS011;59918;51.280;7.950;2022-09-01T10:57:18;0.90;;;0.73;;
72053;SDS011;59918;51.280;7.950;2022-09-01T10:59:52;0.90;;;0.90;;
72053;SDS011;59918;51.280;7.950;2022-09-01T11:02:18;1.58;;;0.85;;
72053;SDS011;59918;51.280;7.950;2022-09-01T11:10:08;0.60;;;0.60;;
72053;SDS011;59918;51.280;7.950;2022-09-01T11:13:02;1.10;;;1.00;;
72053;SDS011;59918;51.280;7.950;2022-09-01T11:15:35;1.42;;;1.00;;
72053;SDS011;59918;51.280;7.950;2022-09-01T11:18:06;0.95;;;0.90;;
72053;SDS011;59918;51.280;7.950;2022-09-01T11:20:35;1.40;;;0.82;;
72053;SDS011;59918;51.280;7.950;2022-09-01T11:25:33;1.70;;;0.85;;
72053;SDS011;59918;51.280;7.950;2022-09-01T11:28:00;1.85;;;1.10;;
72053;SDS011;59918;51.280;7.950;2022-09-01T11:32:56;1.00;;;1.00;;
72053;SDS011;59918;51.280;7.950;2022-09-01T11:35:27;2.85;;;1.08;;
72053;SDS011;59918;51.280;7.950;2022-09-01T11:37:56;3.00;;;0.95;;
72053;SDS011;59918;51.280;7.950;2022-09-01T11:40:28;3.08;;;1.20;;
72053;SDS011;59918;51.280;7.950;2022-09-01T11:42:55;1.00;;;0.80;;
72053;SDS011;59918;51.280;7.950;2022-09-01T11:47:53;2.00;;;1.15;;
72053;SDS011;59918;51.280;7.950;2022-09-01T11:50:34;1.80;;;0.90;;
72053;SDS011;59918;51.280;7.950;2022-09-01T11:53:02;1.10;;;1.00;;
72053;SDS011;59918;51.280;7.950;2022-09-01T11:58:27;2.17;;;1.10;;
72053;SDS011;59918;51.280;7.950;2022-09-01T12:00:56;0.80;;;0.80;;
72053;SDS011;59918;51.280;7.950;2022-09-01T12:03:35;1.38;;;1.25;;
72053;SDS011;59918;51.280;7.950;2022-09-01T12:06:02;3.42;;;1.50;;
72053;SDS011;59918;51.280;7.950;2022-09-01T12:08:31;1.77;;;0.90;;
72053;SDS011;59918;51.280;7.950;2022-09-01T12:11:07;1.77;;;1.10;;
72053;SDS011;59918;51.280;7.950;2022-09-01T12:13:32;5.07;;;0.90;;
72053;SDS011;59918;51.280;7.950;2022-09-01T12:15:59;0.88;;;0.88;;
72053;SDS011;59918;51.280;7.950;2022-09-01T12:18:28;1.65;;;1.13;;
72053;SDS011;59918;51.280;7.950;2022-09-01T12:20:56;1.77;;;0.90;;
72053;SDS011;59918;51.280;7.950;2022-09-01T12:25:48;1.20;;;1.07;;
72053;SDS011;59918;51.280;7.950;2022-09-01T12:28:14;1.23;;;0.93;;
72053;SDS011;59918;51.280;7.950;2022-09-01T12:30:40;0.65;;;0.65;;
72053;SDS011;59918;51.280;7.950;2022-09-01T12:33:06;1.58;;;0.90;;
72053;SDS011;59918;51.280;7.950;2022-09-01T12:35:33;1.73;;;0.80;;
72053;SDS011;59918;51.280;7.950;2022-09-01T12:40:43;0.80;;;0.80;;
72053;SDS011;59918;51.280;7.950;2022-09-01T12:43:08;0.80;;;0.70;;
72053;SDS011;59918;51.280;7.950;2022-09-01T12:45:43;3.47;;;1.07;;
72053;SDS011;59918;51.280;7.950;2022-09-01T12:48:24;1.02;;;0.90;;
72053;SDS011;59918;51.280;7.950;2022-09-01T12:50:50;2.05;;;0.90;;
72053;SDS011;59918;51.280;7.950;2022-09-01T12:53:20;0.90;;;0.77;;
72053;SDS011;59918;51.280;7.950;2022-09-01T12:55:54;0.75;;;0.70;;
72053;SDS011;59918;51.280;7.950;2022-09-01T12:58:46;2.15;;;0.80;;
72053;SDS011;59918;51.280;7.950;2022-09-01T13:01:26;1.50;;;0.90;;
72053;SDS011;59918;51.280;7.950;2022-09-01T13:06:52;1.23;;;0.90;;
72053;SDS011;59918;51.280;7.950;2022-09-01T13:09:19;2.55;;;0.98;;
72053;SDS011;59918;51.280;7.950;2022-09-01T13:11:44;1.10;;;0.90;;
72053;SDS011;59918;51.280;7.950;2022-09-01T13:14:10;0.80;;;0.80;;
72053;SDS011;59918;51.280;7.950;2022-09-01T13:16:35;0.83;;;0.80;;
72053;SDS011;59918;51.280;7.950;2022-09-01T13:19:00;1.67;;;0.90;;
72053;SDS011;59918;51.280;7.950;2022-09-01T13:21:26;3.37;;;0.70;;
72053;SDS011;59918;51.280;7.950;2022-09-01T13:23:51;0.73;;;0.73;;
72053;SDS011;59918;51.280;7.950;2022-09-01T13:26:16;0.77;;;0.70;;
72053;SDS011;59918;51.280;7.950;2022-09-01T13:28:42;0.50;;;0.50;;
72053;SDS011;59918;51.280;7.950;2022-09-01T13:31:07;0.60;;;0.60;;
72053;SDS011;59918;51.280;7.950;2022-09-01T13:33:33;2.80;;;0.83;;
72053;SDS011;59918;51.280;7.950;2022-09-01T13:36:00;1.17;;;0.60;;
72053;SDS011;59918;51.280;7.950;2022-09-01T13:38:26;1.20;;;0.80;;
72053;SDS011;59918;51.280;7.950;2022-09-01T13:40:51;1.77;;;0.77;;
72053;SDS011;59918;51.280;7.950;2022-09-01T13:43:18;0.80;;;0.75;;
72053;SDS011;59918;51.280;7.950;2022-09-01T13:45:45;1.88;;;0.90;;
72053;SDS011;59918;51.280;7.950;2022-09-01T13:48:11;3.03;;;0.70;;
72053;SDS011;59918;51.280;7.950;2022-09-01T13:50:37;1.23;;;0.65;;
72053;SDS011;59918;51.280;7.950;2022-09-01T13:53:03;3.63;;;0.93;;
72053;SDS011;59918;51.280;7.950;2022-09-01T13:55:30;1.77;;;0.80;;
72053;SDS011;59918;51.280;7.950;2022-09-01T13:57:59;2.00;;;0.68;;
72053;SDS011;59918;51.280;7.950;2022-09-01T14:00:26;1.63;;;0.70;;
72053;SDS011;59918;51.280;7.950;2022-09-01T14:02:53;1.75;;;0.80;;
72053;SDS011;59918;51.280;7.950;2022-09-01T14:05:21;0.70;;;0.70;;
72053;SDS011;59918;51.280;7.950;2022-09-01T14:07:48;7.05;;;1.08;;
72053;SDS011;59918;51.280;7.950;2022-09-01T14:10:14;0.68;;;0.60;;
72053;SDS011;59918;51.280;7.950;2022-09-01T14:12:40;1.45;;;1.00;;
72053;SDS011;59918;51.280;7.950;2022-09-01T14:15:07;0.70;;;0.70;;
72053;SDS011;59918;51.280;7.950;2022-09-01T14:17:34;1.58;;;0.60;;
72053;SDS011;59918;51.280;7.950;2022-09-01T14:20:00;1.00;;;0.95;;
72053;SDS011;59918;51.280;7.950;2022-09-01T14:22:26;0.68;;;0.68;;
72053;SDS011;59918;51.280;7.950;2022-09-01T14:24:52;0.70;;;0.70;;
72053;SDS011;59918;51.280;7.950;2022-09-01T14:27:17;1.63;;;0.90;;
72053;SDS011;59918;51.280;7.950;2022-09-01T14:29:46;1.70;;;0.80;;
72053;SDS011;59918;51.280;7.950;2022-09-01T14:32:13;1.15;;;0.80;;
72053;SDS011;59918;51.280;7.950;2022-09-01T14:34:38;0.80;;;0.80;;
72053;SDS011;59918;51.280;7.950;2022-09-01T14:37:03;2.07;;;0.90;;
72053;SDS011;59918;51.280;7.950;2022-09-01T14:39:31;1.05;;;0.93;;
72053;SDS011;59918;51.280;7.950;2022-09-01T14:41:56;1.80;;;0.70;;
72053;SDS011;59918;51.280;7.950;2022-09-01T14:44:22;1.40;;;0.97;;
72053;SDS011;59918;51.280;7.950;2022-09-01T14:46:47;0.90;;;0.90;;
72053;SDS011;59918;51.280;7.950;2022-09-01T14:49:15;4.53;;;0.63;;
72053;SDS011;59918;51.280;7.950;2022-09-01T14:51:40;2.35;;;0.88;;
72053;SDS011;59918;51.280;7.950;2022-09-01T14:54:05;1.90;;;0.83;;
72053;SDS011;59918;51.280;7.950;2022-09-01T14:56:30;4.97;;;0.67;;
72053;SDS011;59918;51.280;7.950;2022-09-01T14:58:56;1.77;;;0.53;;
72053;SDS011;59918;51.280;7.950;2022-09-01T15:01:21;1.50;;;0.60;;
72053;SDS011;59918;51.280;7.950;2022-09-01T15:03:46;2.47;;;0.70;;
72053;SDS011;59918;51.280;7.950;2022-09-01T15:06:12;1.23;;;0.60;;
72053;SDS011;59918;51.280;7.950;2022-09-01T15:08:39;1.48;;;0.80;;
72053;SDS011;59918;51.280;7.950;2022-09-01T15:11:12;0.60;;;0.60;;
72053;SDS011;59918;51.280;7.950;2022-09-01T15:13:39;0.70;;;0.60;;
72053;SDS011;59918;51.280;7.950;2022-09-01T15:16:11;0.80;;;0.70;;
72053;SDS011;59918;51.280;7.950;2022-09-01T15:18:42;1.15;;;0.60;;
72053;SDS011;59918;51.280;7.950;2022-09-01T15:21:07;2.40;;;0.80;;
72053;SDS011;59918;51.280;7.950;2022-09-01T15:23:32;1.17;;;0.77;;
72053;SDS011;59918;51.280;7.950;2022-09-01T15:25:57;2.45;;;0.88;;
72053;SDS011;59918;51.280;7.950;2022-09-01T15:28:23;1.27;;;0.70;;
72053;SDS011;59918;51.280;7.950;2022-09-01T15:30:50;2.00;;;0.90;;
72053;SDS011;59918;51.280;7.950;2022-09-01T15:33:16;1.70;;;0.70;;
72053;SDS011;59918;51.280;7.950;2022-09-01T15:35:45;1.33;;;0.80;;
72053;SDS011;59918;51.280;7.950;2022-09-01T15:38:11;1.35;;;0.70;;
72053;SDS011;59918;51.280;7.950;2022-09-01T15:40:40;1.73;;;0.70;;
72053;SDS011;59918;51.280;7.950;2022-09-01T15:43:08;1.40;;;1.00;;
72053;SDS011;59918;51.280;7.950;2022-09-01T15:45:34;1.73;;;0.70;;
72053;SDS011;59918;51.280;7.950;2022-09-01T15:47:59;1.80;;;0.90;;
72053;SDS011;59918;51.280;7.950;2022-09-01T15:50:25;0.60;;;0.60;;
72053;SDS011;59918;51.280;7.950;2022-09-01T15:52:51;2.70;;;1.00;;
72053;SDS011;59918;51.280;7.950;2022-09-01T15:55:27;0.60;;;0.60;;
72053;SDS011;59918;51.280;7.950;2022-09-01T15:58:01;1.75;;;0.70;;